Time;durP1;ratioP1;P1;durP2;ratioP2;P2;SDS_P1;SDS_P2;PMS_P1;PMS_P2;Temp;Humidity;BMP_temperature;BMP_pressure;BME280_temperature;BME280_humidity;BME280_pressure;Samples;Min_cycle;Max_cycle;Signal;HPM_P1;HPM_P2
2021/01/05 00:01:27;;;;;;;20.42;9.75;;;0.00;99.90;;;;;;5068429;28;20068;-72
2021/01/05 00:03:52;;;;;;;21.60;11.70;;;0.50;99.90;;;;;;5096989;28;20103;-72
2021/01/05 00:06:18;;;;;;;22.58;11.32;;;0.60;99.90;;;;;;5094218;28;20073;-72
2021/01/05 00:08:43;;;;;;;19.70;10.23;;;0.80;99.90;;;;;;5087176;28;20107;-72
2021/01/05 00:11:09;;;;;;;26.20;12.00;;;0.90;99.90;;;;;;5087581;28;20137;-73
2021/01/05 00:13:34;;;;;;;21.60;10.65;;;0.80;99.90;;;;;;5091406;28;20145;-72
2021/01/05 00:16:00;;;;;;;23.15;10.52;;;1.00;99.90;;;;;;5069352;28;20179;-72
2021/01/05 00:18:26;;;;;;;20.52;10.20;;;1.00;99.90;;;;;;5090959;28;20510;-72
2021/01/05 00:20:51;;;;;;;22.38;11.18;;;1.00;99.90;;;;;;5072642;28;20064;-73
2021/01/05 00:23:17;;;;;;;17.38;9.52;;;0.80;99.90;;;;;;5096180;28;20110;-73
2021/01/05 00:25:43;;;;;;;22.02;11.52;;;0.80;99.90;;;;;;5087294;28;20107;-73
2021/01/05 00:28:10;;;;;;;21.23;9.48;;;0.50;99.90;;;;;;5097588;28;20080;-73
2021/01/05 00:30:35;;;;;;;19.15;10.38;;;0.30;99.90;;;;;;5099301;28;20677;-73
2021/01/05 00:33:01;;;;;;;23.58;10.55;;;0.20;99.90;;;;;;5094083;28;20089;-73
2021/01/05 00:35:35;;;;;;;26.85;11.50;;;0.10;99.90;;;;;;5098067;28;20103;-73
2021/01/05 00:38:01;;;;;;;20.73;10.43;;;0.00;99.90;;;;;;5091649;28;20134;-73
2021/01/05 00:40:27;;;;;;;18.80;10.30;;;0.10;99.90;;;;;;5067784;28;20555;-73
2021/01/05 00:42:53;;;;;;;23.83;10.40;;;0.40;99.90;;;;;;5087127;28;20906;-73
2021/01/05 00:45:29;;;;;;;22.75;11.80;;;0.50;99.90;;;;;;5097540;28;20076;-73
2021/01/05 00:47:55;;;;;;;18.05;10.25;;;0.30;99.90;;;;;;5104227;28;20555;-73
2021/01/05 00:50:21;;;;;;;23.80;11.43;;;0.20;99.90;;;;;;5096839;28;20131;-73
2021/01/05 00:52:47;;;;;;;22.55;10.77;;;0.20;99.90;;;;;;5087688;28;20128;-73
2021/01/05 00:55:13;;;;;;;21.98;9.98;;;0.20;99.90;;;;;;5087145;28;20669;-73
2021/01/05 00:57:40;;;;;;;25.45;11.65;;;0.30;99.90;;;;;;5088031;28;20088;-73
2021/01/05 01:00:08;;;;;;;22.90;11.40;;;0.40;99.90;;;;;;5085412;28;20088;-73
2021/01/05 01:02:33;;;;;;;25.02;12.35;;;0.60;99.90;;;;;;5088520;28;20099;-72
2021/01/05 01:04:59;;;;;;;26.98;11.48;;;0.70;99.90;;;;;;5085082;28;20080;-73
2021/01/05 01:07:24;;;;;;;25.63;11.95;;;0.80;99.90;;;;;;5103680;28;20084;-73
2021/01/05 01:09:50;;;;;;;24.05;12.10;;;0.90;99.90;;;;;;5100299;28;20083;-73
2021/01/05 01:12:22;;;;;;;27.23;12.15;;;0.80;99.90;;;;;;5094631;28;20088;-74
2021/01/05 01:14:50;;;;;;;24.50;12.38;;;0.90;99.90;;;;;;5066177;28;20119;-72
2021/01/05 01:17:16;;;;;;;28.67;12.10;;;0.30;99.90;;;;;;5094267;28;20069;-73
2021/01/05 01:19:42;;;;;;;26.85;12.15;;;0.20;99.90;;;;;;5095537;28;20086;-73
2021/01/05 01:22:08;;;;;;;21.30;11.63;;;0.20;99.90;;;;;;5089273;28;20080;-73
2021/01/05 01:24:34;;;;;;;20.50;10.63;;;0.00;99.90;;;;;;5100472;28;20080;-73
2021/01/05 01:27:00;;;;;;;23.85;11.18;;;-0.20;99.90;;;;;;5069956;28;20085;-73
2021/01/05 01:29:27;;;;;;;24.20;12.20;;;-0.20;99.90;;;;;;5096662;28;20091;-73
2021/01/05 01:31:54;;;;;;;23.77;11.73;;;-0.30;99.90;;;;;;5094673;28;20096;-73
2021/01/05 01:34:22;;;;;;;19.05;9.80;;;-0.40;99.90;;;;;;5089573;28;20094;-73
2021/01/05 01:36:59;;;;;;;22.50;11.35;;;-0.40;99.90;;;;;;5088507;28;20076;-72
2021/01/05 01:39:25;;;;;;;22.95;11.10;;;-0.10;99.90;;;;;;5095693;28;20115;-73
2021/01/05 01:41:51;;;;;;;24.92;11.35;;;-0.20;99.90;;;;;;5073862;28;20081;-73
2021/01/05 01:44:24;;;;;;;22.08;12.13;;;-0.20;99.90;;;;;;5096820;28;20092;-72
2021/01/05 01:47:06;;;;;;;22.90;11.18;;;-0.20;99.90;;;;;;5099515;28;20140;-72
2021/01/05 01:49:32;;;;;;;20.20;10.30;;;0.10;99.90;;;;;;5095987;28;20138;-72
2021/01/05 01:51:57;;;;;;;20.63;10.55;;;0.10;99.90;;;;;;5089252;28;20793;-72
2021/01/05 01:54:58;;;;;;;16.58;9.75;;;0.00;99.90;;;;;;5086334;28;20088;-72
2021/01/05 01:57:49;;;;;;;20.80;10.85;;;-0.10;99.90;;;;;;5089939;28;20076;-72
2021/01/05 02:00:24;;;;;;;17.35;9.93;;;-0.20;99.90;;;;;;5096612;28;20087;-73
2021/01/05 02:03:08;;;;;;;21.73;10.27;;;-0.30;99.90;;;;;;5107097;28;20095;-73
2021/01/05 02:05:56;;;;;;;18.00;9.25;;;-0.30;99.90;;;;;;5092315;28;20077;-73
2021/01/05 02:08:40;;;;;;;16.05;8.10;;;-0.30;99.90;;;;;;5092246;28;20102;-73
2021/01/05 02:11:55;;;;;;;16.40;9.50;;;-0.30;99.90;;;;;;5093021;28;20092;-73
2021/01/05 02:14:57;;;;;;;16.35;7.82;;;-0.10;99.90;;;;;;5023675;28;20097;-73
2021/01/05 02:17:47;;;;;;;16.27;8.15;;;-0.10;99.90;;;;;;5105946;28;20076;-73
2021/01/05 02:20:30;;;;;;;16.63;8.48;;;-0.20;99.90;;;;;;5105561;28;20157;-73
2021/01/05 02:23:22;;;;;;;17.13;9.05;;;-0.20;99.90;;;;;;5091821;28;20115;-73
2021/01/05 02:26:06;;;;;;;18.42;8.95;;;-0.30;99.90;;;;;;5060980;28;20076;-73
2021/01/05 02:28:40;;;;;;;18.40;8.63;;;-0.30;99.90;;;;;;5102984;28;20114;-73
2021/01/05 02:31:39;;;;;;;17.23;9.32;;;-0.30;99.90;;;;;;5098061;28;20493;-73
2021/01/05 02:34:15;;;;;;;18.80;8.93;;;-0.20;99.90;;;;;;5101629;28;20091;-73
2021/01/05 02:36:56;;;;;;;15.07;8.48;;;-0.20;99.90;;;;;;5106987;28;20081;-73
2021/01/05 02:39:48;;;;;;;16.73;8.70;;;-0.20;99.90;;;;;;5074739;28;20072;-73
2021/01/05 02:42:37;;;;;;;13.52;7.72;;;0.20;99.90;;;;;;5097838;28;20102;-73
2021/01/05 02:45:16;;;;;;;16.05;7.80;;;0.50;99.90;;;;;;5080822;28;20087;-73
2021/01/05 02:47:51;;;;;;;16.23;6.82;;;0.30;99.90;;;;;;5081491;28;20112;-73
2021/01/05 02:50:54;;;;;;;16.27;8.65;;;0.20;99.90;;;;;;5088845;28;20090;-73
2021/01/05 02:53:28;;;;;;;14.77;8.10;;;0.20;99.90;;;;;;5088705;28;20145;-73
2021/01/05 02:55:54;;;;;;;;;;;0.50;99.90;;;;;;5074991;28;20068;-73
2021/01/05 02:58:38;;;;;;;16.80;7.22;;;0.60;99.90;;;;;;5070619;28;20067;-73
2021/01/05 03:01:28;;;;;;;16.42;6.90;;;0.50;99.90;;;;;;5069471;28;20152;-73
2021/01/05 03:03:53;;;;;;;15.75;8.82;;;0.50;99.90;;;;;;5068789;28;20092;-73
2021/01/05 03:06:55;;;;;;;13.60;7.72;;;0.50;99.90;;;;;;5080576;28;20938;-73
2021/01/05 03:09:33;;;;;;;16.45;8.65;;;0.30;99.90;;;;;;5089622;28;20075;-73
2021/01/05 03:12:04;;;;;;;16.08;7.95;;;0.30;99.90;;;;;;5094032;28;20139;-73
2021/01/05 03:14:36;;;;;;;17.30;9.00;;;0.10;99.90;;;;;;5086651;28;20072;-72
2021/01/05 03:17:20;;;;;;;15.90;7.70;;;0.20;99.90;;;;;;5094554;28;20440;-72
2021/01/05 03:19:51;;;;;;;15.40;7.95;;;-0.10;99.90;;;;;;5088869;28;20076;-72
2021/01/05 03:22:21;;;;;;;13.52;8.15;;;-0.20;99.90;;;;;;5092706;28;20529;-72
2021/01/05 03:24:48;;;;;;;15.52;8.77;;;-0.30;99.90;;;;;;5088896;28;20068;-72
2021/01/05 03:27:15;;;;;;;16.35;8.85;;;-0.40;99.90;;;;;;5090543;28;20168;-73
2021/01/05 03:29:40;;;;;;;16.95;8.20;;;-0.30;99.90;;;;;;5089947;28;20080;-73
2021/01/05 03:32:09;;;;;;;17.23;8.65;;;-0.40;99.90;;;;;;5068113;28;20305;-73
2021/01/05 03:34:35;;;;;;;16.50;8.23;;;-0.40;99.90;;;;;;5098264;28;20118;-73
2021/01/05 03:37:00;;;;;;;16.58;8.80;;;-0.30;99.90;;;;;;5087115;28;20080;-73
2021/01/05 03:39:26;;;;;;;18.17;9.35;;;-0.40;99.90;;;;;;5090840;28;21430;-73
2021/01/05 03:41:52;;;;;;;18.25;9.02;;;-0.40;99.90;;;;;;5072767;28;20144;-73
2021/01/05 03:44:18;;;;;;;18.73;10.75;;;-0.50;99.90;;;;;;5103888;28;20100;-73
2021/01/05 03:46:43;;;;;;;19.02;9.20;;;-0.40;99.90;;;;;;5097664;28;20168;-73
2021/01/05 03:49:09;;;;;;;21.60;9.88;;;-0.40;99.90;;;;;;5067469;28;20085;-72
2021/01/05 03:51:34;;;;;;;20.00;9.35;;;-0.40;99.90;;;;;;5086830;28;20579;-73
2021/01/05 03:54:00;;;;;;;17.45;8.35;;;-0.50;99.90;;;;;;5097144;28;20095;-72
2021/01/05 03:56:26;;;;;;;17.30;9.10;;;-0.50;99.90;;;;;;5089371;28;20084;-73
2021/01/05 03:58:51;;;;;;;15.55;8.68;;;-0.50;99.90;;;;;;5084653;28;20080;-73
2021/01/05 04:01:17;;;;;;;20.10;10.05;;;-0.50;99.90;;;;;;5087691;28;20611;-73
2021/01/05 04:03:43;;;;;;;16.70;9.68;;;-0.50;99.90;;;;;;5069812;28;20598;-73
2021/01/05 04:06:09;;;;;;;17.30;9.05;;;-0.50;99.90;;;;;;5087132;28;20126;-72
2021/01/05 04:08:35;;;;;;;22.48;10.50;;;-0.50;99.90;;;;;;5092726;28;20072;-73
2021/01/05 04:11:01;;;;;;;18.33;9.57;;;-0.40;99.90;;;;;;5072699;28;20096;-72
2021/01/05 04:13:26;;;;;;;20.65;9.93;;;-0.50;99.90;;;;;;5086448;28;20575;-73
2021/01/05 04:15:52;;;;;;;19.33;10.00;;;-0.50;99.90;;;;;;5087097;28;20080;-73
2021/01/05 04:18:18;;;;;;;21.13;10.60;;;-0.50;99.90;;;;;;5091291;28;20597;-73
2021/01/05 04:20:43;;;;;;;21.40;10.98;;;-0.60;99.90;;;;;;5094004;28;20088;-73
2021/01/05 04:23:09;;;;;;;22.48;9.88;;;-0.50;99.90;;;;;;5087900;28;20593;-73
2021/01/05 04:25:34;;;;;;;20.92;9.27;;;-0.50;99.90;;;;;;5086970;28;20488;-73
2021/01/05 04:28:00;;;;;;;21.38;10.90;;;-0.50;99.90;;;;;;5087023;28;20699;-73
2021/01/05 04:30:33;;;;;;;21.20;9.93;;;-0.50;99.90;;;;;;5070450;28;20542;-73
2021/01/05 04:33:02;;;;;;;20.13;9.73;;;-0.60;99.90;;;;;;5089105;28;20104;-73
2021/01/05 04:35:28;;;;;;;17.38;9.43;;;-0.50;99.90;;;;;;5089094;28;20809;-73
2021/01/05 04:37:54;;;;;;;22.52;10.48;;;-0.30;99.90;;;;;;5086527;28;20147;-73
2021/01/05 04:40:45;;;;;;;23.45;11.05;;;-0.20;99.90;;;;;;5073346;28;20593;-72
2021/01/05 04:43:37;;;;;;;20.77;10.38;;;-0.50;99.90;;;;;;5085426;28;20115;-72
2021/01/05 04:46:14;;;;;;;21.00;10.20;;;-0.50;99.90;;;;;;5076783;28;20072;-73
2021/01/05 04:48:53;;;;;;;23.75;10.27;;;-0.70;99.90;;;;;;5065893;28;20073;-73
2021/01/05 04:51:58;;;;;;;26.05;12.77;;;-0.60;99.90;;;;;;5084080;28;20096;-73
2021/01/05 04:54:43;;;;;;;24.42;12.00;;;-0.60;99.90;;;;;;5052466;28;20130;-72
2021/01/05 04:57:19;;;;;;;24.58;11.35;;;-0.60;99.90;;;;;;5087014;28;20091;-73
2021/01/05 04:59:57;;;;;;;29.58;13.15;;;-0.60;99.90;;;;;;5089080;28;20115;-73
2021/01/05 05:02:29;;;;;;;25.90;11.50;;;-0.70;99.90;;;;;;5083904;28;20080;-73
2021/01/05 05:05:01;;;;;;;24.08;12.57;;;-0.70;99.90;;;;;;5096110;28;20077;-73
2021/01/05 05:07:43;;;;;;;26.95;12.43;;;-0.70;99.90;;;;;;5092105;28;20080;-73
2021/01/05 05:10:25;;;;;;;24.60;11.43;;;-0.70;99.90;;;;;;5092194;28;20090;-73
2021/01/05 05:13:25;;;;;;;26.67;13.65;;;-0.30;99.90;;;;;;5096250;28;20104;-73
2021/01/05 05:16:25;;;;;;;25.13;10.80;;;-0.30;99.90;;;;;;5001663;28;20097;-73
2021/01/05 05:19:20;;;;;;;22.73;10.63;;;-0.10;99.90;;;;;;5037556;28;20095;-73
2021/01/05 05:21:45;;;;;;;21.77;10.40;;;-0.30;99.90;;;;;;5092418;28;20080;-73
2021/01/05 05:24:27;;;;;;;25.13;11.90;;;0.00;99.90;;;;;;5100586;28;20103;-73
2021/01/05 05:27:36;;;;;;;24.55;11.98;;;0.30;99.90;;;;;;5070299;28;20073;-73
2021/01/05 05:30:15;;;;;;;26.52;12.27;;;0.10;99.90;;;;;;5056491;28;20572;-73
2021/01/05 05:32:49;;;;;;;24.70;11.88;;;0.00;99.90;;;;;;5085585;28;20134;-73
2021/01/05 05:35:38;;;;;;;28.85;13.77;;;0.10;99.90;;;;;;5090492;28;20479;-73
2021/01/05 05:38:11;;;;;;;24.98;11.45;;;-0.10;99.90;;;;;;5088316;28;20983;-73
2021/01/05 05:40:38;;;;;;;28.33;14.02;;;0.00;99.90;;;;;;5097053;28;20072;-73
2021/01/05 05:43:43;;;;;;;25.20;12.40;;;0.30;99.90;;;;;;5089641;28;20092;-73
2021/01/05 05:46:13;;;;;;;23.85;11.88;;;0.30;99.90;;;;;;5089357;28;20092;-72
2021/01/05 05:48:52;;;;;;;24.30;11.40;;;0.40;99.90;;;;;;5088847;28;20087;-72
2021/01/05 05:51:37;;;;;;;29.55;13.63;;;0.50;99.90;;;;;;5072701;28;20092;-72
2021/01/05 05:54:11;;;;;;;23.90;11.35;;;0.60;99.90;;;;;;5091132;28;20532;-73
2021/01/05 05:56:52;;;;;;;28.33;13.30;;;0.50;99.90;;;;;;5089510;28;20073;-73
2021/01/05 05:59:38;;;;;;;26.45;13.63;;;0.30;99.90;;;;;;5076076;28;20154;-73
2021/01/05 06:02:03;;;;;;;23.48;11.75;;;-0.10;99.90;;;;;;5104412;28;20140;-73
2021/01/05 06:04:33;;;;;;;28.05;13.00;;;0.20;99.90;;;;;;5102693;28;20159;-73
2021/01/05 06:06:58;;;;;;;24.70;12.48;;;0.40;99.90;;;;;;5100293;28;20080;-73
2021/01/05 06:09:24;;;;;;;28.98;14.30;;;0.30;99.90;;;;;;5093877;28;20084;-73
2021/01/05 06:11:54;;;;;;;30.15;12.70;;;0.30;99.90;;;;;;5098058;28;20096;-73
2021/01/05 06:14:20;;;;;;;30.23;13.60;;;0.30;99.90;;;;;;5106795;28;20104;-73
2021/01/05 06:16:46;;;;;;;26.25;12.10;;;0.00;99.90;;;;;;5108836;28;20069;-73
2021/01/05 06:19:11;;;;;;;31.95;13.10;;;-0.10;99.90;;;;;;5072146;28;20073;-73
2021/01/05 06:21:37;;;;;;;27.50;13.88;;;-0.10;99.90;;;;;;5094039;28;20087;-73
2021/01/05 06:24:02;;;;;;;26.60;12.63;;;-0.20;99.90;;;;;;5100093;28;20107;-73
2021/01/05 06:26:28;;;;;;;25.42;13.63;;;0.00;99.90;;;;;;5077978;28;20175;-73
2021/01/05 06:28:53;;;;;;;31.02;14.68;;;0.20;99.90;;;;;;5076293;28;20549;-73
2021/01/05 06:31:19;;;;;;;31.58;14.73;;;0.20;99.90;;;;;;5074315;28;20093;-74
2021/01/05 06:33:44;;;;;;;29.38;14.32;;;0.30;99.90;;;;;;5096181;28;20095;-74
2021/01/05 06:36:10;;;;;;;31.30;15.65;;;0.50;99.90;;;;;;5091362;28;20483;-73
2021/01/05 06:38:36;;;;;;;33.00;15.95;;;0.50;99.90;;;;;;5089674;28;20069;-75
2021/01/05 06:41:01;;;;;;;30.65;15.65;;;0.70;99.90;;;;;;5094216;28;20657;-73
2021/01/05 06:43:27;;;;;;;36.08;17.35;;;0.70;99.90;;;;;;5068788;28;20128;-73
2021/01/05 06:45:53;;;;;;;32.65;15.30;;;0.50;99.90;;;;;;5092244;28;20080;-73
2021/01/05 06:48:18;;;;;;;28.85;14.38;;;0.30;99.90;;;;;;5089881;28;20116;-74
2021/01/05 06:50:44;;;;;;;30.63;14.07;;;0.50;99.90;;;;;;5090611;28;20187;-74
2021/01/05 06:53:09;;;;;;;34.30;15.80;;;0.60;99.90;;;;;;5070879;28;20115;-74
2021/01/05 06:55:35;;;;;;;26.13;12.82;;;0.70;99.90;;;;;;5087277;28;20084;-74
2021/01/05 06:58:00;;;;;;;30.67;14.15;;;0.80;99.90;;;;;;5108775;28;20075;-72
2021/01/05 07:00:28;;;;;;;32.38;13.35;;;0.80;99.90;;;;;;5094582;28;20079;-72
2021/01/05 07:02:54;;;;;;;31.17;14.63;;;0.50;99.90;;;;;;5095848;28;20092;-71
2021/01/05 07:05:21;;;;;;;33.80;14.38;;;0.50;99.90;;;;;;5091207;28;20503;-72
2021/01/05 07:07:47;;;;;;;33.45;16.92;;;0.20;99.90;;;;;;5095357;28;20099;-72
2021/01/05 07:10:15;;;;;;;30.85;14.40;;;-0.10;99.90;;;;;;5092773;28;20568;-71
2021/01/05 07:12:40;;;;;;;32.03;14.65;;;0.00;99.90;;;;;;5096056;28;20116;-72
2021/01/05 07:15:08;;;;;;;30.95;14.45;;;0.20;99.90;;;;;;5071953;28;20126;-72
2021/01/05 07:17:34;;;;;;;34.50;13.98;;;0.00;99.90;;;;;;5089000;28;20080;-71
2021/01/05 07:20:00;;;;;;;30.15;13.93;;;-0.10;99.90;;;;;;5086480;28;20100;-72
2021/01/05 07:22:26;;;;;;;27.52;13.32;;;-0.20;99.90;;;;;;5088093;28;20611;-72
2021/01/05 07:24:51;;;;;;;30.48;14.75;;;-0.20;99.90;;;;;;5089188;28;20107;-72
2021/01/05 07:27:17;;;;;;;30.10;14.38;;;-0.20;99.90;;;;;;5081094;28;20072;-73
2021/01/05 07:29:42;;;;;;;27.90;12.32;;;-0.30;99.90;;;;;;5096270;28;20611;-73
2021/01/05 07:32:08;;;;;;;29.98;13.98;;;-0.40;99.90;;;;;;5071612;28;20092;-73
2021/01/05 07:34:37;;;;;;;29.60;13.43;;;-0.40;99.90;;;;;;5064825;28;20084;-73
2021/01/05 07:37:05;;;;;;;30.27;14.25;;;-0.40;99.90;;;;;;5082417;28;20080;-73
2021/01/05 07:39:33;;;;;;;32.50;14.85;;;-0.40;99.90;;;;;;5107837;28;20167;-73
2021/01/05 07:42:20;;;;;;;29.77;13.52;;;-0.50;99.90;;;;;;5098553;28;20082;-73
2021/01/05 07:44:49;;;;;;;29.10;14.02;;;-0.40;99.90;;;;;;5068231;28;20435;-73
2021/01/05 07:47:16;;;;;;;29.77;14.30;;;-0.40;99.90;;;;;;5069704;28;20475;-72
2021/01/05 07:49:42;;;;;;;29.08;13.38;;;-0.40;99.90;;;;;;5080369;28;20107;-73
2021/01/05 07:52:25;;;;;;;29.05;13.50;;;-0.40;99.90;;;;;;5074972;28;20092;-73
2021/01/05 07:54:51;;;;;;;32.85;14.73;;;-0.40;99.90;;;;;;5091922;28;20088;-73
2021/01/05 07:57:17;;;;;;;27.35;12.55;;;-0.50;99.90;;;;;;5094944;28;20080;-72
2021/01/05 07:59:43;;;;;;;27.65;12.13;;;-0.60;99.90;;;;;;5091785;28;20137;-72
2021/01/05 08:02:09;;;;;;;26.42;12.45;;;-0.60;99.90;;;;;;5086821;28;21107;-73
2021/01/05 08:04:36;;;;;;;28.95;13.30;;;-0.60;99.90;;;;;;5085877;28;20081;-73
2021/01/05 08:07:01;;;;;;;29.85;15.10;;;-0.60;99.90;;;;;;5087126;28;20099;-72
2021/01/05 08:09:27;;;;;;;30.40;14.45;;;-0.60;99.90;;;;;;5071416;28;20072;-73
2021/01/05 08:11:52;;;;;;;32.55;13.88;;;-0.70;99.90;;;;;;5088311;28;20085;-73
2021/01/05 08:14:18;;;;;;;32.83;14.18;;;-0.60;99.90;;;;;;5069622;28;20179;-73
2021/01/05 08:16:48;;;;;;;30.25;15.38;;;-0.60;99.90;;;;;;5086840;28;20106;-73
2021/01/05 08:19:13;;;;;;;36.33;14.73;;;-0.70;99.90;;;;;;5089714;28;20095;-72
2021/01/05 08:21:39;;;;;;;30.35;14.50;;;-0.70;99.90;;;;;;5084694;28;20352;-72
2021/01/05 08:24:04;;;;;;;34.80;17.23;;;-0.70;99.90;;;;;;5081951;28;20097;-71
2021/01/05 08:26:30;;;;;;;39.83;18.55;;;-0.40;99.90;;;;;;5084032;28;20084;-71
2021/01/05 08:28:56;;;;;;;34.30;14.05;;;-0.30;99.90;;;;;;5067322;28;20086;-72
2021/01/05 08:31:22;;;;;;;37.03;14.30;;;-0.50;99.90;;;;;;5101943;28;20114;-72
2021/01/05 08:33:47;;;;;;;31.33;13.82;;;-0.60;99.90;;;;;;5082589;28;20100;-72
2021/01/05 08:36:13;;;;;;;34.38;15.25;;;-0.60;99.90;;;;;;5093120;28;20076;-72
2021/01/05 08:38:38;;;;;;;27.88;13.10;;;-0.70;99.90;;;;;;5090605;28;20081;-78
2021/01/05 08:41:04;;;;;;;29.83;14.15;;;-0.70;99.90;;;;;;5098914;28;20110;-71
2021/01/05 08:43:29;;;;;;;32.67;15.55;;;-0.70;99.90;;;;;;5086286;28;20108;-71
2021/01/05 08:45:56;;;;;;;33.58;14.75;;;-0.60;99.90;;;;;;5074385;28;20079;-75
2021/01/05 08:48:21;;;;;;;35.40;14.52;;;-0.60;99.90;;;;;;5095359;28;20108;-73
2021/01/05 08:50:47;;;;;;;31.02;15.38;;;-0.50;99.90;;;;;;5091111;28;20131;-72
2021/01/05 08:53:13;;;;;;;34.22;15.75;;;-0.40;99.90;;;;;;5097919;28;20085;-73
2021/01/05 08:55:41;;;;;;;32.15;15.15;;;-0.30;99.90;;;;;;5090580;28;20819;-72
2021/01/05 08:58:08;;;;;;;26.05;13.75;;;-0.20;99.90;;;;;;5096102;28;20082;-73
2021/01/05 09:00:35;;;;;;;30.38;13.95;;;0.00;99.90;;;;;;5088754;28;20076;-73
2021/01/05 09:03:03;;;;;;;30.27;14.38;;;0.10;99.90;;;;;;5084335;28;20119;-72
2021/01/05 09:05:29;;;;;;;32.75;15.80;;;0.10;99.90;;;;;;5076355;28;20084;-73
2021/01/05 09:07:54;;;;;;;30.75;14.77;;;0.10;99.90;;;;;;5091131;28;20744;-73
2021/01/05 09:10:23;;;;;;;32.65;16.33;;;0.20;99.90;;;;;;5074528;28;20518;-72
2021/01/05 09:12:49;;;;;;;29.58;15.00;;;0.30;99.90;;;;;;5092694;28;20123;-72
2021/01/05 09:15:20;;;;;;;24.25;11.57;;;0.40;99.90;;;;;;5072165;28;20524;-72
2021/01/05 09:17:48;;;;;;;27.38;13.55;;;0.40;99.90;;;;;;5090567;28;20603;-72
2021/01/05 09:20:16;;;;;;;25.10;12.07;;;0.30;99.90;;;;;;5091127;28;20516;-72
2021/01/05 09:22:41;;;;;;;26.48;13.20;;;0.10;99.90;;;;;;5101692;28;20093;-72
2021/01/05 09:25:08;;;;;;;29.02;13.35;;;0.20;99.90;;;;;;5092313;28;20110;-71
2021/01/05 09:27:33;;;;;;;25.50;13.35;;;0.30;99.90;;;;;;5089926;28;20108;-72
2021/01/05 09:29:59;;;;;;;28.05;14.70;;;0.30;99.90;;;;;;5088081;28;20205;-73
2021/01/05 09:32:24;;;;;;;28.42;13.13;;;0.20;99.90;;;;;;5067675;28;20479;-74
2021/01/05 09:34:50;;;;;;;31.95;14.60;;;-0.10;99.90;;;;;;5090086;28;20086;-75
2021/01/05 09:37:15;;;;;;;34.63;16.63;;;0.00;99.90;;;;;;5089737;28;20065;-72
2021/01/05 09:39:41;;;;;;;28.75;13.20;;;0.30;99.90;;;;;;5080377;28;20122;-78
2021/01/05 09:42:07;;;;;;;25.30;13.35;;;0.10;99.90;;;;;;5093117;28;20104;-77
2021/01/05 09:44:33;;;;;;;36.83;17.67;;;0.20;99.90;;;;;;5091588;28;20080;-75
2021/01/05 09:47:02;;;;;;;49.25;21.08;;;0.20;99.90;;;;;;5093048;28;20077;-74
2021/01/05 09:49:29;;;;;;;37.08;18.00;;;0.20;99.90;;;;;;5100678;28;20175;-75
2021/01/05 09:51:59;;;;;;;28.88;14.60;;;0.40;99.90;;;;;;5091697;28;20085;-73
2021/01/05 09:54:26;;;;;;;32.45;13.90;;;0.30;99.90;;;;;;5091556;28;20092;-72
2021/01/05 09:56:55;;;;;;;27.52;12.75;;;0.40;99.90;;;;;;5089945;28;20073;-75
2021/01/05 09:59:23;;;;;;;30.73;14.13;;;0.40;99.90;;;;;;5098148;28;20184;-76
2021/01/05 10:01:49;;;;;;;27.38;13.13;;;0.00;99.90;;;;;;5104457;28;20098;-80
2021/01/05 10:04:15;;;;;;;28.77;12.57;;;0.20;99.90;;;;;;5069518;28;20681;-73
2021/01/05 10:06:41;;;;;;;32.30;13.45;;;0.40;99.90;;;;;;5069062;28;20076;-72
2021/01/05 10:09:08;;;;;;;31.45;13.90;;;0.40;99.90;;;;;;5086434;28;20087;-74
2021/01/05 10:11:36;;;;;;;29.08;13.55;;;0.40;99.90;;;;;;5068670;28;20093;-72
2021/01/05 10:14:03;;;;;;;35.33;14.98;;;0.20;99.90;;;;;;5087306;28;20104;-73
2021/01/05 10:16:28;;;;;;;25.73;12.20;;;0.10;99.90;;;;;;5090151;28;20077;-77
2021/01/05 10:18:54;;;;;;;26.90;11.85;;;0.00;99.90;;;;;;5072689;28;20447;-71
2021/01/05 10:21:23;;;;;;;28.63;12.65;;;0.00;99.90;;;;;;5090903;28;20457;-73
2021/01/05 10:23:49;;;;;;;29.67;13.38;;;-0.10;99.90;;;;;;5084999;28;20092;-72
2021/01/05 10:26:15;;;;;;;24.05;11.93;;;-0.20;99.90;;;;;;5088187;28;20083;-73
2021/01/05 10:28:40;;;;;;;25.48;12.50;;;-0.20;99.90;;;;;;5092900;28;20097;-72
2021/01/05 10:31:06;;;;;;;22.67;11.27;;;0.00;99.90;;;;;;5090480;28;20084;-74
2021/01/05 10:33:31;;;;;;;25.33;11.45;;;-0.10;99.90;;;;;;5090921;28;20111;-78
2021/01/05 10:35:57;;;;;;;30.45;13.35;;;0.10;99.90;;;;;;5085277;28;20435;-76
2021/01/05 10:38:22;;;;;;;22.23;11.57;;;0.30;99.90;;;;;;5091465;28;20464;-74
2021/01/05 10:40:51;;;;;;;22.08;10.85;;;0.20;99.90;;;;;;5088560;28;20080;-71
2021/01/05 10:43:17;;;;;;;25.92;12.13;;;0.30;99.90;;;;;;5090096;28;20092;-70
2021/01/05 10:45:42;;;;;;;26.48;13.57;;;0.10;99.90;;;;;;5089720;28;20095;-73
2021/01/05 10:48:08;;;;;;;25.38;13.13;;;0.30;99.90;;;;;;5089902;28;20076;-71
2021/01/05 10:50:34;;;;;;;27.13;13.40;;;0.30;99.90;;;;;;5070977;28;20092;-71
2021/01/05 10:52:59;;;;;;;24.90;11.80;;;0.50;99.90;;;;;;5094171;28;20092;-71
2021/01/05 10:55:25;;;;;;;22.88;13.07;;;0.50;99.90;;;;;;5087605;28;20068;-73
2021/01/05 10:57:51;;;;;;;33.03;13.27;;;0.60;99.90;;;;;;5090748;28;20080;-73
2021/01/05 11:00:21;;;;;;;24.25;11.95;;;0.80;99.90;;;;;;5095598;28;20081;-73
2021/01/05 11:02:46;;;;;;;24.23;12.02;;;0.60;99.90;;;;;;5065639;28;20464;-73
2021/01/05 11:05:17;;;;;;;23.05;10.35;;;0.60;99.90;;;;;;5083370;28;20076;-74
2021/01/05 11:07:51;;;;;;;23.95;11.27;;;0.80;99.90;;;;;;5081910;28;20564;-74
2021/01/05 11:10:17;;;;;;;26.90;11.02;;;1.00;99.90;;;;;;5083650;28;20072;-74
2021/01/05 11:12:43;;;;;;;22.95;12.10;;;0.60;99.90;;;;;;5083100;28;20130;-73
2021/01/05 11:15:12;;;;;;;24.70;12.27;;;0.20;99.90;;;;;;5086060;28;20164;-74
2021/01/05 11:17:38;;;;;;;23.38;10.57;;;0.10;99.90;;;;;;5084852;28;20645;-74
2021/01/05 11:20:04;;;;;;;27.30;12.30;;;0.20;99.90;;;;;;5093770;28;20088;-73
2021/01/05 11:22:29;;;;;;;20.90;10.95;;;0.30;99.90;;;;;;5092651;28;20100;-72
2021/01/05 11:24:55;;;;;;;25.95;10.70;;;0.30;99.90;;;;;;5085197;28;20123;-73
2021/01/05 11:27:20;;;;;;;25.08;13.02;;;0.40;99.90;;;;;;5088489;28;20658;-72
2021/01/05 11:29:47;;;;;;;22.92;11.02;;;0.50;99.90;;;;;;5089609;28;20076;-72
2021/01/05 11:32:15;;;;;;;22.27;11.30;;;0.60;99.90;;;;;;5087494;28;20088;-73
2021/01/05 11:34:43;;;;;;;26.80;12.75;;;0.80;99.90;;;;;;5088373;28;20129;-72
2021/01/05 11:37:14;;;;;;;25.92;12.18;;;0.90;99.90;;;;;;5091095;28;20439;-73
2021/01/05 11:39:42;;;;;;;21.10;11.32;;;0.70;99.90;;;;;;5094109;28;20077;-73
2021/01/05 11:42:10;;;;;;;26.35;12.93;;;0.60;99.90;;;;;;5096144;28;20171;-73
2021/01/05 11:44:36;;;;;;;24.73;11.23;;;0.50;99.90;;;;;;5082646;28;20159;-74
2021/01/05 11:47:01;;;;;;;22.67;11.52;;;0.50;99.90;;;;;;5088289;28;20167;-74
2021/01/05 11:49:27;;;;;;;23.05;11.93;;;0.60;99.90;;;;;;5094888;28;20164;-73
2021/01/05 11:51:54;;;;;;;26.40;12.80;;;0.40;99.90;;;;;;5075661;28;20144;-76
2021/01/05 11:54:21;;;;;;;23.95;11.20;;;0.50;99.90;;;;;;5096178;28;20100;-74
2021/01/05 11:56:47;;;;;;;23.35;11.15;;;0.90;99.90;;;;;;5081638;28;20541;-73
2021/01/05 11:59:13;;;;;;;28.50;12.35;;;1.00;99.90;;;;;;5080619;28;20069;-77
2021/01/05 12:01:39;;;;;;;25.42;12.85;;;1.30;99.90;;;;;;5088618;28;20081;-75
2021/01/05 12:04:07;;;;;;;24.00;11.40;;;1.40;99.90;;;;;;5068302;28;20629;-77
2021/01/05 12:06:33;;;;;;;25.48;11.00;;;1.40;99.90;;;;;;5087960;28;20480;-74
2021/01/05 12:08:59;;;;;;;27.88;13.10;;;1.20;99.90;;;;;;5087915;28;20107;-75
2021/01/05 12:11:27;;;;;;;27.15;12.35;;;1.20;99.90;;;;;;5091725;28;20089;-74
2021/01/05 12:13:53;;;;;;;25.90;12.43;;;1.30;99.90;;;;;;5069312;28;20124;-78
2021/01/05 12:16:37;;;;;;;30.40;13.65;;;1.40;99.90;;;;;;5083090;28;20095;-77
2021/01/05 12:19:07;;;;;;;26.98;11.43;;;1.40;99.90;;;;;;5069726;28;20104;-75
2021/01/05 12:21:35;;;;;;;30.00;12.55;;;1.50;99.90;;;;;;5093948;28;20567;-77
2021/01/05 12:24:01;;;;;;;33.15;15.32;;;1.50;99.90;;;;;;5086783;28;20699;-77
2021/01/05 12:26:29;;;;;;;32.28;15.13;;;1.50;99.90;;;;;;5087463;28;20080;-75
2021/01/05 12:28:57;;;;;;;31.20;14.07;;;1.50;99.90;;;;;;5076065;28;20080;-74
2021/01/05 12:31:23;;;;;;;28.63;12.50;;;1.50;99.90;;;;;;5088926;28;20089;-75
2021/01/05 12:33:49;;;;;;;24.58;11.88;;;1.10;99.90;;;;;;5085846;28;20088;-76
2021/01/05 12:36:33;;;;;;;33.70;17.65;;;1.00;99.90;;;;;;5085637;28;20077;-76
2021/01/05 12:38:59;;;;;;;44.15;19.20;;;1.20;99.90;;;;;;5070518;28;20087;-76
2021/01/05 12:41:33;;;;;;;33.15;16.77;;;1.20;99.90;;;;;;5084039;28;20442;-76
2021/01/05 12:44:00;;;;;;;28.58;13.95;;;1.40;99.90;;;;;;5074533;28;20663;-76
2021/01/05 12:46:29;;;;;;;26.35;14.10;;;1.40;99.90;;;;;;5078295;28;20076;-77
2021/01/05 12:48:55;;;;;;;28.65;13.65;;;1.40;99.90;;;;;;5068416;28;20142;-77
2021/01/05 12:51:38;;;;;;;26.77;12.43;;;1.40;99.90;;;;;;5079846;28;20101;-78